Time;durP1;ratioP1;P1;durP2;ratioP2;P2;SDS_P1;SDS_P2;PMS_P1;PMS_P2;Temp;Humidity;BMP_temperature;BMP_pressure;BME280_temperature;BME280_humidity;BME280_pressure;Samples;Min_cycle;Max_cycle;Signal;HPM_P1;HPM_P2
2023/12/01 00:01:14;;;;;;;192.75;84.03;;;-2.50;99.90;;;;;;5074310;28;20103;-78
2023/12/01 00:03:40;;;;;;;201.82;86.38;;;-2.50;99.90;;;;;;5085292;28;20032;-79
2023/12/01 00:06:07;;;;;;;214.23;89.60;;;-2.50;99.90;;;;;;5074354;28;20047;-77
2023/12/01 00:08:32;;;;;;;207.90;89.03;;;-2.50;99.90;;;;;;5074550;28;20025;-79
2023/12/01 00:10:58;;;;;;;194.40;83.43;;;-2.50;99.90;;;;;;5074448;28;20070;-79
2023/12/01 00:13:23;;;;;;;203.25;87.63;;;-2.50;99.90;;;;;;5073488;28;20028;-78
2023/12/01 00:15:49;;;;;;;209.52;89.97;;;-2.50;99.90;;;;;;5073355;28;20044;-77
2023/12/01 00:18:15;;;;;;;228.38;90.97;;;-2.50;99.90;;;;;;5073356;28;20525;-79
2023/12/01 00:20:43;;;;;;;203.80;88.90;;;-2.50;99.90;;;;;;5073099;28;20020;-79
2023/12/01 00:23:08;;;;;;;204.27;91.78;;;-2.50;99.90;;;;;;5072926;28;20032;-79
2023/12/01 00:25:34;;;;;;;213.02;94.63;;;-2.50;99.90;;;;;;5072438;28;20028;-79
2023/12/01 00:28:00;;;;;;;222.32;99.53;;;-2.50;99.90;;;;;;5074569;28;20028;-76
2023/12/01 00:30:29;;;;;;;270.77;109.68;;;-2.50;99.90;;;;;;5072817;28;20025;-76
2023/12/01 00:32:55;;;;;;;249.18;108.22;;;-2.50;99.90;;;;;;5074256;28;20048;-79
2023/12/01 00:35:21;;;;;;;263.00;111.20;;;-2.50;99.90;;;;;;5072935;28;20036;-76
2023/12/01 00:37:47;;;;;;;254.00;104.00;;;-2.50;99.90;;;;;;5073073;28;20020;-77
2023/12/01 00:40:12;;;;;;;233.85;103.28;;;-2.40;99.90;;;;;;5072795;28;20063;-76
2023/12/01 00:42:38;;;;;;;224.88;101.60;;;-2.40;99.90;;;;;;5074206;28;20090;-76
2023/12/01 00:45:05;;;;;;;226.60;101.80;;;-2.40;99.90;;;;;;5072757;28;20025;-76
2023/12/01 00:47:31;;;;;;;224.45;96.57;;;-2.50;99.90;;;;;;5073896;28;20013;-79
2023/12/01 00:49:57;;;;;;;220.88;97.30;;;-2.50;99.90;;;;;;5073687;28;20036;-78
2023/12/01 00:52:22;;;;;;;190.90;81.65;;;-2.50;99.90;;;;;;5072581;28;20017;-76
2023/12/01 00:54:48;;;;;;;136.25;63.22;;;-2.50;99.90;;;;;;5072398;28;20028;-76
2023/12/01 00:57:14;;;;;;;127.07;55.60;;;-2.50;99.90;;;;;;5073949;28;20039;-75
2023/12/01 00:59:39;;;;;;;112.32;51.38;;;-2.50;99.90;;;;;;5072458;28;20028;-75
2023/12/01 01:02:05;;;;;;;116.13;48.00;;;-2.60;99.90;;;;;;5072310;28;20029;-79
2023/12/01 01:04:30;;;;;;;94.13;42.33;;;-2.60;99.90;;;;;;5072509;28;20024;-76
2023/12/01 01:06:56;;;;;;;91.88;42.97;;;-2.60;99.90;;;;;;5073701;28;20032;-78
2023/12/01 01:09:22;;;;;;;109.93;48.65;;;-2.60;99.90;;;;;;5073799;28;20027;-75
2023/12/01 01:11:47;;;;;;;120.63;50.88;;;-2.60;99.90;;;;;;5072408;28;20012;-79
2023/12/01 01:14:13;;;;;;;105.78;47.28;;;-2.60;99.90;;;;;;5073340;28;20051;-79
2023/12/01 01:16:39;;;;;;;124.30;52.80;;;-2.60;99.90;;;;;;5073681;28;20024;-78
2023/12/01 01:19:04;;;;;;;152.52;63.85;;;-2.70;99.90;;;;;;5073251;28;20025;-79
2023/12/01 01:21:30;;;;;;;116.00;50.00;;;-2.70;99.90;;;;;;5073365;28;20040;-77
2023/12/01 01:23:56;;;;;;;98.65;42.63;;;-2.80;99.90;;;;;;5071715;28;20024;-79
2023/12/01 01:26:21;;;;;;;83.57;36.90;;;-2.80;99.90;;;;;;5072075;28;20025;-79
2023/12/01 01:28:47;;;;;;;108.68;51.80;;;-2.80;99.90;;;;;;5071461;28;20055;-77
2023/12/01 01:31:13;;;;;;;101.68;44.20;;;-2.80;99.90;;;;;;5071937;28;20025;-78
2023/12/01 01:33:38;;;;;;;99.30;43.65;;;-2.90;99.90;;;;;;5073016;28;20056;-77
2023/12/01 01:36:05;;;;;;;90.75;42.47;;;-2.90;99.90;;;;;;5071917;28;20023;-76
2023/12/01 01:38:30;;;;;;;93.90;42.30;;;-2.90;99.90;;;;;;5071500;28;20020;-77
2023/12/01 01:40:56;;;;;;;103.53;47.40;;;-2.90;99.90;;;;;;5072721;28;20025;-77
2023/12/01 01:43:22;;;;;;;127.72;60.45;;;-3.00;99.90;;;;;;5072870;28;20056;-77
2023/12/01 01:46:09;;;;;;;142.63;63.13;;;-2.90;99.90;;;;;;5071695;28;20470;-77
2023/12/01 01:48:35;;;;;;;121.50;54.95;;;-3.00;99.90;;;;;;5072739;28;20055;-79
2023/12/01 01:51:02;;;;;;;125.18;52.70;;;-3.00;99.90;;;;;;5071648;28;20032;-77
2023/12/01 01:53:29;;;;;;;118.18;51.70;;;-3.00;99.90;;;;;;5072765;28;20020;-76
2023/12/01 01:55:58;;;;;;;101.53;45.13;;;-3.10;99.90;;;;;;5071684;28;20104;-79
2023/12/01 01:58:25;;;;;;;97.70;45.05;;;-3.10;99.90;;;;;;5072669;28;20370;-79
2023/12/01 02:00:51;;;;;;;98.85;43.35;;;-3.10;99.90;;;;;;5071491;28;20469;-76
2023/12/01 02:03:19;;;;;;;87.10;41.10;;;-3.20;99.90;;;;;;5071317;28;20035;-78
2023/12/01 02:05:48;;;;;;;83.53;41.90;;;-3.20;99.90;;;;;;5072965;28;20012;-78
2023/12/01 02:08:24;;;;;;;85.03;38.95;;;-3.20;99.90;;;;;;5072484;28;20028;-79
2023/12/01 02:10:51;;;;;;;79.30;36.35;;;-3.20;99.90;;;;;;5072817;28;20428;-78
2023/12/01 02:13:17;;;;;;;85.88;40.17;;;-3.20;99.90;;;;;;5072861;28;20032;-79
2023/12/01 02:15:43;;;;;;;106.45;48.58;;;-3.20;99.90;;;;;;5072381;28;20021;-76
2023/12/01 02:18:19;;;;;;;147.48;64.95;;;-3.20;99.90;;;;;;5071382;28;20021;-79
2023/12/01 02:20:45;;;;;;;147.07;63.92;;;-3.30;99.90;;;;;;5071238;28;20028;-76
2023/12/01 02:23:10;;;;;;;147.88;66.95;;;-3.30;99.90;;;;;;5070995;28;20110;-76
2023/12/01 02:25:36;;;;;;;146.20;64.95;;;-3.30;99.90;;;;;;5072463;28;20054;-78
2023/12/01 02:28:02;;;;;;;153.25;66.43;;;-3.20;99.90;;;;;;5072505;28;20020;-79
2023/12/01 02:30:27;;;;;;;153.82;69.88;;;-3.20;99.90;;;;;;5071096;28;20385;-79
2023/12/01 02:32:53;;;;;;;147.82;68.28;;;-3.30;99.90;;;;;;5072403;28;20055;-76
2023/12/01 02:35:19;;;;;;;139.02;64.18;;;-3.30;99.90;;;;;;5070872;28;20021;-76
2023/12/01 02:37:44;;;;;;;130.80;57.53;;;-3.20;99.90;;;;;;5071106;28;20020;-79
2023/12/01 02:40:15;;;;;;;142.00;64.30;;;-3.20;99.90;;;;;;5074642;28;20074;-79
2023/12/01 02:42:51;;;;;;;126.10;58.85;;;-3.20;99.90;;;;;;5075172;28;20119;-76
2023/12/01 02:45:18;;;;;;;111.20;52.08;;;-3.20;99.90;;;;;;5075106;28;20017;-76
2023/12/01 02:47:47;;;;;;;101.55;47.28;;;-3.20;99.90;;;;;;5076060;28;20032;-76
2023/12/01 02:50:13;;;;;;;88.65;37.50;;;-3.20;99.90;;;;;;5076151;28;20029;-76
2023/12/01 02:52:39;;;;;;;53.00;27.20;;;-3.20;99.90;;;;;;5076190;28;20035;-78
2023/12/01 02:55:05;;;;;;;58.38;30.55;;;-3.30;99.90;;;;;;5076098;28;20021;-79
2023/12/01 02:57:31;;;;;;;68.85;31.02;;;-3.20;99.90;;;;;;5076203;28;20363;-79
2023/12/01 02:59:56;;;;;;;59.33;30.90;;;-3.20;99.90;;;;;;5062557;28;20016;-76
2023/12/01 03:02:23;;;;;;;53.05;28.10;;;-3.20;99.90;;;;;;5074632;28;20036;-75
2023/12/01 03:04:49;;;;;;;63.17;29.05;;;-3.20;99.90;;;;;;5075985;28;20016;-79
2023/12/01 03:07:16;;;;;;;61.72;29.77;;;-3.20;99.90;;;;;;5075973;28;20074;-79
2023/12/01 03:09:42;;;;;;;67.40;31.90;;;-3.20;99.90;;;;;;5075775;28;20428;-76
2023/12/01 03:12:07;;;;;;;72.53;32.60;;;-3.20;99.90;;;;;;5075729;28;20033;-76
2023/12/01 03:14:33;;;;;;;84.30;35.88;;;-3.20;99.90;;;;;;5075712;28;20048;-78
2023/12/01 03:16:59;;;;;;;80.28;40.10;;;-3.20;99.90;;;;;;5075857;28;20046;-78
2023/12/01 03:19:25;;;;;;;82.13;40.00;;;-3.20;99.90;;;;;;5075687;28;20047;-77
2023/12/01 03:21:51;;;;;;;87.53;37.75;;;-3.30;99.90;;;;;;5073903;28;20028;-77
2023/12/01 03:24:16;;;;;;;92.72;40.65;;;-3.30;99.90;;;;;;5073711;28;20021;-77
2023/12/01 03:26:42;;;;;;;93.35;42.00;;;-3.30;99.90;;;;;;5075230;28;20027;-79
2023/12/01 03:29:09;;;;;;;83.85;42.10;;;-3.30;99.90;;;;;;5074133;28;20024;-79
2023/12/01 03:31:35;;;;;;;104.50;43.92;;;-3.30;99.90;;;;;;5074590;28;20040;-76
2023/12/01 03:34:02;;;;;;;93.05;44.42;;;-3.30;99.90;;;;;;5073136;28;20017;-77
2023/12/01 03:36:27;;;;;;;92.65;39.95;;;-3.30;99.90;;;;;;5073122;28;20430;-79
2023/12/01 03:38:53;;;;;;;87.18;41.47;;;-3.30;99.90;;;;;;5074285;28;20075;-76
2023/12/01 03:41:18;;;;;;;100.50;45.70;;;-3.30;99.90;;;;;;5073562;28;20055;-75
2023/12/01 03:43:44;;;;;;;88.93;42.30;;;-3.30;99.90;;;;;;5074328;28;20036;-76
2023/12/01 03:46:10;;;;;;;80.15;38.97;;;-3.30;99.90;;;;;;5072814;28;20020;-79
2023/12/01 03:48:36;;;;;;;89.38;43.28;;;-3.30;99.90;;;;;;5074387;28;20028;-79
2023/12/01 03:51:02;;;;;;;80.72;40.00;;;-3.30;99.90;;;;;;5072186;28;20024;-76
2023/12/01 03:53:30;;;;;;;91.10;41.05;;;-3.30;99.90;;;;;;5072748;28;20127;-76
2023/12/01 03:55:57;;;;;;;67.45;35.20;;;-3.30;99.90;;;;;;5072508;28;20052;-77
2023/12/01 03:58:24;;;;;;;86.53;41.75;;;-3.20;99.90;;;;;;5073511;28;20107;-76
2023/12/01 04:00:51;;;;;;;86.30;39.85;;;-3.30;99.90;;;;;;5073915;28;20422;-79
2023/12/01 04:03:17;;;;;;;89.93;40.58;;;-3.30;99.90;;;;;;5073518;28;20032;-76
2023/12/01 04:05:43;;;;;;;85.18;40.75;;;-3.30;99.90;;;;;;5072604;28;20477;-76
2023/12/01 04:08:08;;;;;;;90.65;42.05;;;-3.30;99.90;;;;;;5073428;28;20113;-79
2023/12/01 04:10:34;;;;;;;89.13;41.35;;;-3.30;99.90;;;;;;5073859;28;20131;-76
2023/12/01 04:13:07;;;;;;;102.97;44.30;;;-3.30;99.90;;;;;;5072676;28;20032;-76
2023/12/01 04:15:34;;;;;;;93.20;42.72;;;-3.30;99.90;;;;;;5072444;28;20027;-76
2023/12/01 04:18:06;;;;;;;96.18;43.30;;;-3.30;99.90;;;;;;5072060;28;20025;-76
2023/12/01 04:20:36;;;;;;;93.90;44.17;;;-3.30;99.90;;;;;;5072476;28;20039;-76
2023/12/01 04:23:09;;;;;;;93.55;44.03;;;-3.30;99.90;;;;;;5073223;28;20107;-77
2023/12/01 04:25:36;;;;;;;104.25;51.33;;;-3.40;99.90;;;;;;5073296;28;20054;-79
2023/12/01 04:28:02;;;;;;;99.07;49.20;;;-3.40;99.90;;;;;;5071562;28;20024;-77
2023/12/01 04:30:28;;;;;;;96.63;46.20;;;-3.40;99.90;;;;;;5073285;28;20024;-76
2023/12/01 04:32:55;;;;;;;95.53;46.72;;;-3.30;99.90;;;;;;5030606;28;1176512;-78
2023/12/01 04:35:25;;;;;;;93.43;43.88;;;-3.30;99.90;;;;;;5074408;28;20029;-77
2023/12/01 04:37:51;;;;;;;73.63;34.72;;;-3.30;99.90;;;;;;5073707;28;20025;-79
2023/12/01 04:40:17;;;;;;;67.45;32.55;;;-3.30;99.90;;;;;;5072991;28;20070;-79
2023/12/01 04:42:47;;;;;;;71.13;33.50;;;-3.30;99.90;;;;;;5073830;28;20107;-80
2023/12/01 04:45:15;;;;;;;75.75;33.85;;;-3.40;99.90;;;;;;5072765;28;20028;-79
2023/12/01 04:47:42;;;;;;;83.65;36.20;;;-3.30;99.90;;;;;;5072596;28;20019;-79
2023/12/01 04:50:13;;;;;;;84.35;38.60;;;-3.40;99.90;;;;;;5072515;28;20061;-77
2023/12/01 04:52:44;;;;;;;75.47;37.83;;;-3.30;99.90;;;;;;5072791;28;20115;-77
2023/12/01 04:55:14;;;;;;;88.97;39.70;;;-3.30;99.90;;;;;;5072556;28;20474;-77
2023/12/01 04:57:42;;;;;;;76.95;37.58;;;-3.30;99.90;;;;;;5072833;28;20025;-78
2023/12/01 05:00:18;;;;;;;85.15;38.03;;;-3.30;99.90;;;;;;5073876;28;20024;-77
2023/12/01 05:02:46;;;;;;;76.10;37.42;;;-3.30;99.90;;;;;;5073125;28;20039;-79
2023/12/01 05:05:12;;;;;;;82.53;38.88;;;-3.30;99.90;;;;;;5072189;28;20023;-79
2023/12/01 05:07:37;;;;;;;81.53;39.63;;;-3.30;99.90;;;;;;5073909;28;20025;-79
2023/12/01 05:10:08;;;;;;;77.75;35.97;;;-3.30;99.90;;;;;;5072256;28;20025;-79
2023/12/01 05:12:34;;;;;;;79.82;39.63;;;-3.20;99.90;;;;;;5072442;28;20513;-79
2023/12/01 05:15:00;;;;;;;94.80;42.55;;;-3.30;99.90;;;;;;5073264;28;20035;-77
2023/12/01 05:17:25;;;;;;;90.15;43.72;;;-3.30;99.90;;;;;;5072158;28;20021;-76
2023/12/01 05:19:51;;;;;;;91.15;44.20;;;-3.30;99.90;;;;;;5071988;28;20539;-79
2023/12/01 05:22:16;;;;;;;85.32;45.08;;;-3.30;99.90;;;;;;5072017;28;20043;-78
2023/12/01 05:24:43;;;;;;;94.75;45.70;;;-3.30;99.90;;;;;;5071808;28;20021;-76
2023/12/01 05:27:08;;;;;;;99.38;47.13;;;-3.30;99.90;;;;;;5071999;28;20090;-78
2023/12/01 05:29:35;;;;;;;111.07;49.78;;;-3.30;99.90;;;;;;5073062;28;20028;-77
2023/12/01 05:32:02;;;;;;;103.20;48.45;;;-3.20;99.90;;;;;;5071737;28;20052;-77
2023/12/01 05:34:28;;;;;;;105.07;47.22;;;-3.20;99.90;;;;;;5071517;28;20029;-77
2023/12/01 05:36:53;;;;;;;103.65;50.08;;;-3.20;99.90;;;;;;5073180;28;20100;-79
2023/12/01 05:39:19;;;;;;;106.75;49.42;;;-3.20;99.90;;;;;;5073086;28;20434;-79
2023/12/01 05:41:44;;;;;;;98.35;43.67;;;-3.30;99.90;;;;;;5071920;28;20086;-79
2023/12/01 05:44:10;;;;;;;109.88;49.20;;;-3.30;99.90;;;;;;5071435;28;20046;-79
2023/12/01 05:46:36;;;;;;;100.93;45.92;;;-3.30;99.90;;;;;;5072931;28;20100;-77
2023/12/01 05:49:02;;;;;;;110.07;47.13;;;-3.30;99.90;;;;;;5072967;28;20020;-79
2023/12/01 05:51:29;;;;;;;92.15;45.58;;;-3.30;99.90;;;;;;5072996;28;20024;-79
2023/12/01 05:53:55;;;;;;;103.85;46.95;;;-3.30;99.90;;;;;;5070994;28;20020;-76
2023/12/01 05:56:21;;;;;;;107.85;44.70;;;-3.30;99.90;;;;;;5070740;28;20055;-76
2023/12/01 05:58:47;;;;;;;105.85;46.05;;;-3.30;99.90;;;;;;5070706;28;20070;-76
2023/12/01 06:01:15;;;;;;;100.97;44.17;;;-3.30;99.90;;;;;;5070934;28;20016;-76
2023/12/01 06:03:40;;;;;;;102.60;43.97;;;-3.30;99.90;;;;;;5071140;28;20031;-76
2023/12/01 06:06:07;;;;;;;103.45;47.40;;;-3.30;99.90;;;;;;5070658;28;20104;-76
2023/12/01 06:08:32;;;;;;;99.53;42.95;;;-3.30;99.90;;;;;;5071428;28;20024;-79
2023/12/01 06:10:58;;;;;;;79.38;41.50;;;-3.30;99.90;;;;;;5068667;28;20021;-78
2023/12/01 06:13:23;;;;;;;94.80;43.55;;;-3.30;99.90;;;;;;5069748;28;20055;-78
2023/12/01 06:15:49;;;;;;;92.82;43.53;;;-3.30;99.90;;;;;;5069623;28;20040;-78
2023/12/01 06:18:15;;;;;;;87.25;40.70;;;-3.30;99.90;;;;;;5071698;28;20082;-78
2023/12/01 06:20:40;;;;;;;85.95;41.65;;;-3.30;99.90;;;;;;5070844;28;20059;-79
2023/12/01 06:23:06;;;;;;;83.57;41.72;;;-3.30;99.90;;;;;;5070540;28;20565;-79
2023/12/01 06:25:33;;;;;;;87.78;39.15;;;-3.30;99.90;;;;;;5071933;28;20056;-79
2023/12/01 06:28:01;;;;;;;69.18;34.60;;;-3.30;99.90;;;;;;5070688;28;20009;-79
2023/12/01 06:30:33;;;;;;;66.95;33.28;;;-3.40;99.90;;;;;;5069733;28;20028;-78
2023/12/01 06:33:00;;;;;;;69.28;32.75;;;-3.40;99.90;;;;;;5068386;28;20363;-77
2023/12/01 06:35:26;;;;;;;67.82;33.60;;;-3.40;99.90;;;;;;5069009;28;20514;-76
2023/12/01 06:37:54;;;;;;;72.50;36.00;;;-3.40;99.90;;;;;;5068550;28;20446;-76
2023/12/01 06:40:20;;;;;;;86.85;40.53;;;-3.40;99.90;;;;;;5068756;28;20178;-77
2023/12/01 06:42:51;;;;;;;80.47;35.28;;;-3.40;99.90;;;;;;5072590;28;20084;-76
2023/12/01 06:45:23;;;;;;;81.85;36.30;;;-3.30;99.90;;;;;;5071838;28;20033;-76
2023/12/01 06:47:49;;;;;;;72.68;32.20;;;-3.30;99.90;;;;;;5070023;28;20025;-76
2023/12/01 06:50:22;;;;;;;65.60;29.92;;;-3.20;99.90;;;;;;5070744;28;20020;-76
2023/12/01 06:52:51;;;;;;;68.20;30.77;;;-3.20;99.90;;;;;;5072099;28;20100;-79
2023/12/01 06:55:17;;;;;;;65.75;30.92;;;-3.20;99.90;;;;;;5072138;28;20016;-79
2023/12/01 06:57:45;;;;;;;65.97;32.10;;;-3.10;99.90;;;;;;5074218;28;20036;-76
2023/12/01 07:00:29;;;;;;;62.47;29.15;;;-3.10;99.90;;;;;;5070636;28;20017;-76
2023/12/01 07:03:01;;;;;;;66.57;32.50;;;-3.00;99.90;;;;;;5070695;28;20090;-76
2023/12/01 07:05:29;;;;;;;66.13;34.25;;;-3.00;99.90;;;;;;5070410;28;20025;-76
2023/12/01 07:07:56;;;;;;;74.32;35.45;;;-2.90;99.90;;;;;;5069877;28;20027;-77
2023/12/01 07:10:22;;;;;;;68.15;33.63;;;-2.90;99.90;;;;;;5068385;28;20028;-77
2023/12/01 07:12:49;;;;;;;70.03;33.17;;;-2.80;99.90;;;;;;5068207;28;20036;-77
2023/12/01 07:15:20;;;;;;;74.93;34.08;;;-2.70;99.90;;;;;;5061666;28;20051;-77
2023/12/01 07:17:54;;;;;;;72.95;32.03;;;-2.70;99.90;;;;;;5063534;28;20028;-77
2023/12/01 07:20:20;;;;;;;73.15;34.40;;;-2.50;99.90;;;;;;5067720;28;20047;-77
2023/12/01 07:22:47;;;;;;;71.00;32.92;;;-2.50;99.90;;;;;;5065524;28;20547;-77
2023/12/01 07:25:25;;;;;;;66.60;31.80;;;-2.40;99.90;;;;;;5061090;28;20028;-77
2023/12/01 07:28:11;;;;;;;70.95;32.55;;;-2.30;99.90;;;;;;5072821;28;20029;-77
2023/12/01 07:30:40;;;;;;;60.85;28.80;;;-2.30;99.90;;;;;;5067938;28;20033;-77
2023/12/01 07:33:07;;;;;;;66.50;29.98;;;-2.30;99.90;;;;;;5081108;28;20039;-76
2023/12/01 07:35:34;;;;;;;60.47;28.88;;;-2.20;99.90;;;;;;5072424;28;20032;-77
2023/12/01 07:38:00;;;;;;;69.43;32.28;;;-2.30;99.90;;;;;;5073124;28;20040;-77
2023/12/01 07:40:27;;;;;;;57.58;29.75;;;-2.20;99.90;;;;;;5072774;28;20043;-77
2023/12/01 07:42:55;;;;;;;58.65;30.67;;;-2.20;99.90;;;;;;5071920;28;20127;-77
2023/12/01 07:45:21;;;;;;;60.25;31.27;;;-2.10;99.90;;;;;;5074203;28;20433;-77
2023/12/01 07:47:54;;;;;;;62.67;29.05;;;-2.00;99.90;;;;;;5073732;28;20020;-77
2023/12/01 07:50:21;;;;;;;73.70;33.75;;;-1.90;99.90;;;;;;5072511;28;20024;-77
2023/12/01 07:52:49;;;;;;;59.90;29.75;;;-1.90;99.90;;;;;;5073200;28;20035;-77
2023/12/01 07:55:16;;;;;;;68.32;33.20;;;-1.80;99.90;;;;;;5073395;28;20071;-77
2023/12/01 07:57:41;;;;;;;66.78;34.30;;;-1.70;99.90;;;;;;5073296;28;20028;-77
2023/12/01 08:00:14;;;;;;;66.70;33.90;;;-1.60;99.90;;;;;;5073060;28;20012;-77
2023/12/01 08:02:43;;;;;;;70.90;35.53;;;-1.50;99.90;;;;;;5072895;28;20062;-75
2023/12/01 08:05:13;;;;;;;64.75;32.80;;;-1.40;99.90;;;;;;5073393;28;20107;-75
2023/12/01 08:07:53;;;;;;;68.90;33.83;;;-1.30;99.90;;;;;;5073109;28;20036;-75
2023/12/01 08:10:22;;;;;;;61.35;33.30;;;-1.20;99.90;;;;;;5074565;28;20017;-75
2023/12/01 08:12:49;;;;;;;63.63;32.85;;;-1.10;99.90;;;;;;5070642;28;20021;-76
2023/12/01 08:15:15;;;;;;;63.22;30.25;;;-1.00;99.90;;;;;;5074180;28;20017;-76
2023/12/01 08:17:42;;;;;;;62.55;29.70;;;-0.80;99.90;;;;;;5072915;28;20074;-76
2023/12/01 08:20:10;;;;;;;62.92;32.13;;;-0.70;99.90;;;;;;5074118;28;20115;-76
2023/12/01 08:22:37;;;;;;;68.10;33.53;;;-0.70;99.90;;;;;;5072852;28;20035;-76
2023/12/01 08:25:03;;;;;;;63.78;30.98;;;-0.60;99.90;;;;;;5072890;28;20027;-76
2023/12/01 08:27:29;;;;;;;59.45;32.08;;;-0.50;99.90;;;;;;5073704;28;20017;-75
2023/12/01 08:29:55;;;;;;;60.38;28.92;;;-0.40;99.90;;;;;;5074367;28;20035;-75
2023/12/01 08:32:20;;;;;;;58.50;27.60;;;-0.40;99.90;;;;;;5073948;28;20050;-76
2023/12/01 08:34:46;;;;;;;50.08;26.98;;;-0.30;99.90;;;;;;5072828;28;20052;-75
2023/12/01 08:37:12;;;;;;;46.55;25.42;;;-0.20;99.90;;;;;;5072465;28;20090;-76
2023/12/01 08:39:38;;;;;;;52.90;26.27;;;-0.10;99.90;;;;;;5074102;28;20025;-76
2023/12/01 08:42:04;;;;;;;51.13;25.60;;;-0.10;99.90;;;;;;5072768;28;20035;-76
2023/12/01 08:44:30;;;;;;;39.92;20.40;;;0.00;99.90;;;;;;5072850;28;20414;-76
2023/12/01 08:46:56;;;;;;;49.38;23.50;;;0.10;99.90;;;;;;5072728;28;20054;-76
2023/12/01 08:49:21;;;;;;;64.03;30.27;;;0.10;99.90;;;;;;5072284;28;20058;-76
2023/12/01 08:51:47;;;;;;;57.92;30.60;;;0.20;99.90;;;;;;5073971;28;20025;-76
2023/12/01 08:54:13;;;;;;;58.10;30.42;;;0.30;99.90;;;;;;5072179;28;20030;-75
2023/12/01 08:56:41;;;;;;;71.57;31.58;;;0.30;99.90;;;;;;5067594;28;20021;-76
2023/12/01 08:59:07;;;;;;;50.97;25.90;;;0.40;99.90;;;;;;5073592;28;20112;-76
2023/12/01 09:01:33;;;;;;;48.15;23.13;;;0.50;99.90;;;;;;5073110;28;20120;-76
2023/12/01 09:03:58;;;;;;;58.45;31.95;;;0.60;99.90;;;;;;5072613;28;20020;-76
2023/12/01 09:06:24;;;;;;;71.57;33.83;;;0.70;99.90;;;;;;5064869;28;20505;-76
2023/12/01 09:08:50;;;;;;;76.57;36.28;;;0.80;99.90;;;;;;5073235;28;20470;-76
2023/12/01 09:11:15;;;;;;;77.65;35.63;;;0.80;99.90;;;;;;5071883;28;20450;-75
2023/12/01 09:13:41;;;;;;;76.88;37.13;;;0.90;99.90;;;;;;5069067;28;20021;-76
2023/12/01 09:16:07;;;;;;;68.28;30.98;;;1.10;99.90;;;;;;5062816;28;20481;-75
2023/12/01 09:18:33;;;;;;;36.45;20.80;;;1.20;99.90;;;;;;5071939;28;20048;-76
2023/12/01 09:20:58;;;;;;;37.63;19.83;;;1.20;99.90;;;;;;5071776;28;20020;-76
2023/12/01 09:23:27;;;;;;;35.40;19.23;;;1.30;99.90;;;;;;5072778;28;20040;-76
2023/12/01 09:25:53;;;;;;;34.50;17.27;;;1.40;99.90;;;;;;5072463;28;20055;-76
2023/12/01 09:28:19;;;;;;;39.63;19.77;;;1.40;99.90;;;;;;5070144;28;20025;-75
2023/12/01 09:30:44;;;;;;;31.45;18.92;;;1.40;99.90;;;;;;5070031;28;20077;-76
2023/12/01 09:33:10;;;;;;;33.22;18.40;;;1.40;99.90;;;;;;5073026;28;20049;-75
2023/12/01 09:35:36;;;;;;;35.63;18.88;;;1.50;99.90;;;;;;5071666;28;20374;-76
2023/12/01 09:38:01;;;;;;;34.13;17.63;;;1.50;99.90;;;;;;5071876;28;20021;-76
2023/12/01 09:40:27;;;;;;;33.90;18.80;;;1.50;99.90;;;;;;5072878;28;20100;-75
2023/12/01 09:42:53;;;;;;;28.58;16.65;;;1.60;99.90;;;;;;5072969;28;20111;-75
2023/12/01 09:45:26;;;;;;;37.30;16.10;;;1.70;99.90;;;;;;5071515;28;20466;-77
2023/12/01 09:47:57;;;;;;;25.38;15.88;;;1.70;99.50;;;;;;5072495;28;20070;-78
2023/12/01 09:50:23;;;;;;;30.65;17.17;;;1.60;97.30;;;;;;5070005;28;20029;-78
2023/12/01 09:52:52;;;;;;;33.90;17.45;;;1.60;96.60;;;;;;5072099;28;20386;-78
2023/12/01 09:55:17;;;;;;;37.40;18.90;;;1.60;95.40;;;;;;5072020;28;20032;-78
2023/12/01 09:57:43;;;;;;;34.97;18.88;;;1.60;95.00;;;;;;5068032;28;20075;-78
2023/12/01 10:00:11;;;;;;;39.58;17.92;;;1.60;95.20;;;;;;5070252;28;20099;-78
2023/12/01 10:02:40;;;;;;;41.33;20.23;;;1.60;95.90;;;;;;5070749;28;20123;-78
2023/12/01 10:05:06;;;;;;;44.28;21.58;;;1.60;95.80;;;;;;5071105;28;20028;-78
2023/12/01 10:07:33;;;;;;;57.25;26.05;;;1.70;96.40;;;;;;5069841;28;20119;-77
2023/12/01 10:09:59;;;;;;;49.70;25.58;;;1.70;96.80;;;;;;5069708;28;20021;-78
2023/12/01 10:12:24;;;;;;;45.60;21.90;;;1.60;96.00;;;;;;5071851;28;20351;-78
2023/12/01 10:14:50;;;;;;;44.97;22.92;;;1.60;95.70;;;;;;5072588;28;20022;-79
2023/12/01 10:17:25;;;;;;;41.40;21.60;;;1.50;96.20;;;;;;5062697;28;20040;-78
2023/12/01 10:19:51;;;;;;;44.92;22.33;;;1.50;96.60;;;;;;5071139;28;20033;-79
2023/12/01 10:22:17;;;;;;;38.53;20.80;;;1.50;96.70;;;;;;5072125;28;20028;-78
2023/12/01 10:25:03;;;;;;;45.08;21.45;;;1.50;97.70;;;;;;5072461;28;20416;-79
2023/12/01 10:27:31;;;;;;;51.17;25.20;;;1.50;98.50;;;;;;5071897;28;20074;-78
2023/12/01 10:30:14;;;;;;;46.83;22.80;;;1.50;99.00;;;;;;5071091;28;20482;-78
2023/12/01 10:32:42;;;;;;;;;;;1.50;99.90;;;;;;5070477;28;20549;-78
2023/12/01 10:35:08;;;;;;;50.92;25.02;;;1.50;99.60;;;;;;5071180;28;19913;-78
2023/12/01 10:37:37;;;;;;;48.33;22.67;;;1.50;99.90;;;;;;5071384;28;20112;-78
2023/12/01 10:40:08;;;;;;;45.97;23.95;;;1.40;99.00;;;;;;5070432;28;20107;-78
2023/12/01 10:42:34;;;;;;;40.10;20.85;;;1.50;99.60;;;;;;5070256;28;20131;-79
2023/12/01 10:45:02;;;;;;;39.47;20.30;;;1.50;98.40;;;;;;5070918;28;20039;-78
2023/12/01 10:47:28;;;;;;;44.05;21.58;;;1.50;97.70;;;;;;5068954;28;20028;-79
2023/12/01 10:49:58;;;;;;;58.63;28.00;;;1.60;97.70;;;;;;5069470;28;20482;-79
2023/12/01 10:52:30;;;;;;;44.78;23.17;;;1.50;97.20;;;;;;5071901;28;20032;-79
2023/12/01 10:54:56;;;;;;;53.83;25.13;;;1.50;97.80;;;;;;5071071;28;20025;-79
2023/12/01 10:57:39;;;;;;;47.45;23.40;;;1.40;97.90;;;;;;5067154;28;20389;-79
2023/12/01 11:00:29;;;;;;;47.80;22.63;;;1.40;98.30;;;;;;5063732;28;20020;-78
2023/12/01 11:02:54;;;;;;;51.70;22.92;;;1.30;98.10;;;;;;5074625;28;20040;-78
2023/12/01 11:05:20;;;;;;;52.88;27.27;;;1.30;98.30;;;;;;5074267;28;20016;-78
2023/12/01 11:07:55;;;;;;;52.97;26.02;;;1.40;98.60;;;;;;5075321;28;20485;-78
2023/12/01 11:10:56;;;;;;;55.65;26.83;;;1.40;98.80;;;;;;5076847;28;20013;-78
2023/12/01 11:13:55;;;;;;;58.88;26.10;;;1.40;97.70;;;;;;5075016;28;20028;-78
2023/12/01 11:16:20;;;;;;;48.00;22.45;;;1.50;98.00;;;;;;5073874;28;20150;-78
2023/12/01 11:18:47;;;;;;;43.38;21.25;;;1.50;98.00;;;;;;5075772;28;20025;-78
2023/12/01 11:21:17;;;;;;;50.78;21.38;;;1.60;98.00;;;;;;5070165;28;20056;-78
2023/12/01 11:23:43;;;;;;;37.33;18.90;;;1.60;97.40;;;;;;5074549;28;20017;-78
2023/12/01 11:26:11;;;;;;;39.72;19.02;;;1.60;96.90;;;;;;5068954;28;20427;-78
2023/12/01 11:28:46;;;;;;;35.95;17.42;;;1.60;95.50;;;;;;5072779;28;20108;-79
2023/12/01 11:33:52;;;;;;;33.25;17.63;;;1.50;94.00;;;;;;5075078;28;20090;-80
2023/12/01 11:36:22;;;;;;;37.72;18.15;;;1.50;93.40;;;;;;5073320;28;20032;-79
2023/12/01 11:39:16;;;;;;;30.42;17.77;;;1.50;92.40;;;;;;5074107;28;20035;-79
2023/12/01 11:41:47;;;;;;;41.60;16.85;;;1.50;92.20;;;;;;5065550;28;20032;-79
2023/12/01 11:44:24;;;;;;;35.55;17.90;;;1.40;91.70;;;;;;5072617;28;20024;-78
2023/12/01 11:46:58;;;;;;;33.05;16.15;;;1.30;91.70;;;;;;5073619;28;20028;-79
2023/12/01 11:49:44;;;;;;;30.92;17.10;;;1.30;92.50;;;;;;5074832;28;20021;-79
2023/12/01 11:52:14;;;;;;;38.97;19.13;;;1.20;92.90;;;;;;5071721;28;20092;-79
2023/12/01 11:54:41;;;;;;;32.35;16.73;;;1.20;92.90;;;;;;5071095;28;20032;-79
2023/12/01 11:57:12;;;;;;;30.90;15.82;;;1.10;93.10;;;;;;5071844;28;20098;-79
2023/12/01 11:59:38;;;;;;;32.90;17.25;;;1.00;92.20;;;;;;5068974;28;20025;-79
2023/12/01 12:02:05;;;;;;;36.30;18.73;;;1.00;92.50;;;;;;5072539;28;20033;-79
2023/12/01 12:04:32;;;;;;;39.17;22.02;;;1.00;93.60;;;;;;5073819;28;20107;-79
2023/12/01 12:07:00;;;;;;;34.20;18.75;;;1.00;93.10;;;;;;5073411;28;20020;-79
2023/12/01 12:09:27;;;;;;;39.13;19.98;;;1.00;94.30;;;;;;5072068;28;20024;-80
2023/12/01 12:11:55;;;;;;;43.20;20.33;;;1.00;95.10;;;;;;5072573;28;20074;-80
2023/12/01 12:14:25;;;;;;;37.28;19.50;;;1.00;95.50;;;;;;5073757;28;20017;-79
2023/12/01 12:16:51;;;;;;;41.80;21.23;;;1.10;95.00;;;;;;5072039;28;20390;-80
2023/12/01 12:19:21;;;;;;;42.83;22.33;;;1.10;94.80;;;;;;5072077;28;20378;-79
2023/12/01 12:21:48;;;;;;;37.65;20.75;;;1.10;93.30;;;;;;5072134;28;20067;-80
2023/12/01 12:24:14;;;;;;;42.15;21.10;;;1.00;92.50;;;;;;5073185;28;20075;-80
2023/12/01 12:26:41;;;;;;;47.25;22.02;;;1.00;92.80;;;;;;5073821;28;20073;-80
2023/12/01 12:29:11;;;;;;;42.97;20.95;;;1.10;93.90;;;;;;5075595;28;20107;-80
2023/12/01 12:31:41;;;;;;;44.20;21.80;;;1.10;95.00;;;;;;5071940;28;20041;-80
2023/12/01 12:34:09;;;;;;;43.85;22.42;;;1.10;96.70;;;;;;5072010;28;20135;-80